Time;durP1;ratioP1;P1;durP2;ratioP2;P2;SDS_P1;SDS_P2;PMS_P1;PMS_P2;Temp;Humidity;BMP_temperature;BMP_pressure;BME280_temperature;BME280_humidity;BME280_pressure;Samples;Min_cycle;Max_cycle;Signal;HPM_P1;HPM_P2
2022/01/26 00:05:46;;;;;;;;;;;-5.00;99.90;;;;;;5090673;28;20323;-72
2022/01/26 00:06:34;;;;;;;;;;;-5.30;99.90;;;;;;5090745;28;19914;-71
2022/01/26 00:09:00;;;;;;;;;;;-5.10;99.90;;;;;;5091083;28;20253;-71
2022/01/26 00:11:27;;;;;;;;;;;-5.20;99.90;;;;;;5090843;28;19940;-72
2022/01/26 00:13:53;;;;;;;;;;;-5.20;99.90;;;;;;5090555;28;19916;-71
2022/01/26 00:17:01;;;;;;;;;;;-5.20;99.90;;;;;;5090646;28;19923;-72
2022/01/26 00:19:09;;;;;;;;;;;-5.20;99.90;;;;;;5079113;28;19947;-73
2022/01/26 00:21:39;;;;;;;;;;;-5.20;99.90;;;;;;5076486;28;19908;-72
2022/01/26 00:24:21;;;;;;;;;;;-5.30;99.90;;;;;;5071173;28;20009;-72
2022/01/26 00:29:33;;;;;;;;;;;-5.20;99.90;;;;;;5090796;28;19908;-72
2022/01/26 00:40:05;;;;;;;;;;;-5.40;99.90;;;;;;5071388;28;20447;-72
2022/01/26 00:42:36;;;;;;;;;;;-5.40;99.90;;;;;;5071266;28;19918;-72
2022/01/26 00:45:03;;;;;;;;;;;-5.50;99.90;;;;;;5070889;28;19912;-72
2022/01/26 00:47:29;;;;;;;;;;;-5.50;99.90;;;;;;5072842;28;19934;-72
2022/01/26 00:49:59;;;;;;;;;;;-5.50;99.90;;;;;;5078085;28;20393;-73
2022/01/26 00:52:38;;;;;;;;;;;-5.50;99.90;;;;;;5073577;28;20288;-73
2022/01/26 00:55:04;;;;;;;;;;;-5.40;99.90;;;;;;5075223;28;19908;-72
2022/01/26 00:57:30;;;;;;;;;;;-5.30;99.90;;;;;;5076901;28;19912;-72
2022/01/26 00:59:57;;;;;;;;;;;-5.10;99.90;;;;;;5071166;28;19915;-72
2022/01/26 01:02:23;;;;;;;;;;;-5.00;99.90;;;;;;5070988;28;19948;-72
2022/01/26 01:04:48;;;;;;;;;;;-5.20;99.90;;;;;;5070570;28;19962;-74
2022/01/26 01:07:19;;;;;;;;;;;-5.10;99.90;;;;;;5070965;28;20007;-72
2022/01/26 01:09:44;;;;;;;;;;;-5.10;99.90;;;;;;5071139;28;19915;-72
2022/01/26 01:12:10;;;;;;;;;;;-5.00;99.90;;;;;;5071055;28;19912;-72
2022/01/26 01:14:38;;;;;;;;;;;-4.90;99.90;;;;;;5070388;28;19920;-72
2022/01/26 01:17:07;;;;;;;;;;;-5.10;99.90;;;;;;5071808;28;20019;-72
2022/01/26 01:19:38;;;;;;;;;;;-5.30;99.90;;;;;;5084290;28;19908;-72
2022/01/26 01:28:11;;;;;;;;;;;-5.60;99.90;;;;;;5068548;28;19908;-72
2022/01/26 01:32:52;;;;;;;;;;;-5.60;99.90;;;;;;5094148;28;20276;-72
2022/01/26 01:35:18;;;;;;;;;;;-5.90;99.90;;;;;;5093174;28;20274;-72
2022/01/26 01:37:43;;;;;;;;;;;-5.90;99.90;;;;;;5093920;28;19908;-72
2022/01/26 01:40:09;;;;;;;;;;;-5.80;99.90;;;;;;5093723;28;20257;-72
2022/01/26 01:42:35;;;;;;;;;;;-5.60;99.90;;;;;;5093745;28;20284;-72
2022/01/26 01:45:01;;;;;;;;;;;-5.60;99.90;;;;;;5093159;28;19916;-72
2022/01/26 01:47:26;;;;;;;;;;;-5.60;99.90;;;;;;5087956;28;19909;-72
2022/01/26 01:49:52;;;;;;;;;;;-5.40;99.90;;;;;;5082694;28;19959;-72
2022/01/26 01:52:18;;;;;;;;;;;-5.40;99.90;;;;;;5075060;28;20382;-73
2022/01/26 01:54:50;;;;;;;;;;;-5.30;99.90;;;;;;5073736;28;19909;-74
2022/01/26 01:57:21;;;;;;;;;;;-5.20;99.90;;;;;;5073982;28;19917;-72
2022/01/26 01:59:47;;;;;;;;;;;-5.10;99.90;;;;;;5074116;28;19908;-72
2022/01/26 02:02:13;;;;;;;;;;;-5.00;99.90;;;;;;5073985;28;19908;-72
2022/01/26 02:04:38;;;;;;;;;;;-4.80;99.90;;;;;;5073520;28;20007;-73
2022/01/26 02:07:04;;;;;;;;;;;-4.70;99.90;;;;;;5073749;28;19995;-72
2022/01/26 02:09:29;;;;;;;;;;;-4.70;99.90;;;;;;5073859;28;19916;-72
2022/01/26 02:11:56;;;;;;;;;;;-4.70;99.90;;;;;;5073718;28;19962;-72
2022/01/26 02:14:31;;;;;;;;;;;-4.70;99.90;;;;;;5073362;28;20471;-72
2022/01/26 02:17:22;;;;;;;;;;;-4.60;99.90;;;;;;5082440;28;20236;-72
2022/01/26 02:55:41;;;;;;;;;;;-4.00;99.90;;;;;;5074709;28;20424;-72
2022/01/26 02:58:42;;;;;;;;;;;-4.00;99.90;;;;;;5073140;28;19916;-72
2022/01/26 03:03:44;;;;;;;;;;;-3.90;99.90;;;;;;5091884;28;19908;-72
2022/01/26 03:06:12;;;;;;;;;;;-3.80;99.90;;;;;;5092198;28;19961;-73
2022/01/26 03:08:47;;;;;;;;;;;-3.80;99.90;;;;;;5092276;28;19908;-73
2022/01/26 03:11:14;;;;;;;;;;;-3.80;99.90;;;;;;5092277;28;19908;-72
2022/01/26 03:13:53;;;;;;;;;;;-3.60;99.90;;;;;;5091812;28;19916;-72
2022/01/26 03:16:31;;;;;;;;;;;-3.70;99.90;;;;;;5091905;28;19916;-72
2022/01/26 03:19:15;;;;;;;;;;;-3.70;99.90;;;;;;5082877;28;19916;-72
2022/01/26 03:30:05;;;;;;;;;;;-3.60;99.90;;;;;;5092098;28;19908;-72
2022/01/26 03:35:15;;;;;;;;;;;-3.50;99.90;;;;;;5091753;28;19915;-72
2022/01/26 03:37:50;;;;;;;;;;;-3.60;99.90;;;;;;5091726;28;19923;-72
2022/01/26 03:40:16;;;;;;;;;;;-3.50;99.90;;;;;;5091035;28;19908;-72
2022/01/26 03:42:41;;;;;;;;;;;-3.50;99.90;;;;;;5091462;28;19961;-72
2022/01/26 03:45:07;;;;;;;;;;;-3.50;99.90;;;;;;5082046;28;19956;-72
2022/01/26 03:47:32;;;;;;;;;;;-3.40;99.90;;;;;;5074229;28;19908;-73
2022/01/26 03:49:58;;;;;;;;;;;-3.40;99.90;;;;;;5078961;28;19919;-72
2022/01/26 03:52:23;;;;;;;;;;;-3.40;99.90;;;;;;5072133;28;20357;-72
2022/01/26 03:54:49;;;;;;;;;;;-3.30;99.90;;;;;;5071666;28;19998;-72
2022/01/26 03:57:14;;;;;;;;;;;-3.40;99.90;;;;;;5080237;28;19926;-72
2022/01/26 03:59:40;;;;;;;;;;;-3.40;99.90;;;;;;5091457;28;20398;-72
2022/01/26 04:02:06;;;;;;;;;;;-3.40;99.90;;;;;;5091017;28;19912;-72
2022/01/26 04:04:37;;;;;;;;;;;-3.40;99.90;;;;;;5090782;28;19915;-72
2022/01/26 04:07:03;;;;;;;;;;;-3.40;99.90;;;;;;5091354;28;19912;-72
2022/01/26 04:09:28;;;;;;;;;;;-3.40;99.90;;;;;;5091055;28;20395;-72
2022/01/26 04:11:54;;;;;;;;;;;-3.30;99.90;;;;;;5085150;28;19908;-72
2022/01/26 04:14:23;;;;;;;;;;;-3.30;99.90;;;;;;5071289;28;20387;-73
2022/01/26 04:16:49;;;;;;;;;;;-3.30;99.90;;;;;;5071430;28;20709;-72
2022/01/26 04:19:15;;;;;;;;;;;-3.20;99.90;;;;;;5082934;28;19954;-72
2022/01/26 04:24:21;;;;;;;;;;;-3.30;99.90;;;;;;5071262;28;19915;-72
2022/01/26 04:26:52;;;;;;;;;;;-3.30;99.90;;;;;;5073574;28;19920;-72
2022/01/26 04:29:26;;;;;;;;;;;-3.30;99.90;;;;;;5090862;28;19908;-72
2022/01/26 04:31:52;;;;;;;;;;;-3.20;99.90;;;;;;5091003;28;19916;-72
2022/01/26 04:34:17;;;;;;;;;;;-3.20;99.90;;;;;;5090622;28;19908;-71
2022/01/26 04:36:50;;;;;;;;;;;-3.10;99.90;;;;;;5090767;28;19912;-71
2022/01/26 04:39:21;;;;;;;;;;;-3.10;99.90;;;;;;5090857;28;19908;-72
2022/01/26 04:41:55;;;;;;;;;;;-3.20;99.90;;;;;;5091140;28;19912;-71
2022/01/26 04:44:32;;;;;;;;;;;-3.20;99.90;;;;;;5090493;28;19915;-71
2022/01/26 04:46:58;;;;;;;;;;;-3.20;99.90;;;;;;5088832;28;20003;-72
2022/01/26 04:49:23;;;;;;;;;;;-3.10;99.90;;;;;;5073433;28;20011;-71
2022/01/26 04:51:49;;;;;;;;;;;-3.10;99.90;;;;;;5079594;28;19908;-72
2022/01/26 04:54:15;;;;;;;;;;;-3.10;99.90;;;;;;5075452;28;19913;-71
2022/01/26 04:56:41;;;;;;;;;;;-3.20;99.90;;;;;;5075163;28;19912;-71
2022/01/26 04:59:06;;;;;;;;;;;-3.10;99.90;;;;;;5075473;28;20423;-72
2022/01/26 05:01:32;;;;;;;;;;;-3.10;99.90;;;;;;5075155;28;20388;-71
2022/01/26 05:03:57;;;;;;;;;;;-3.10;99.90;;;;;;5075047;28;19916;-71
2022/01/26 05:06:23;;;;;;;;;;;-3.10;99.90;;;;;;5075509;28;20002;-71
2022/01/26 05:08:49;;;;;;;;;;;-3.10;99.90;;;;;;5075122;28;19916;-71
2022/01/26 05:11:21;;;;;;;;;;;-3.00;99.90;;;;;;5075028;28;19971;-73
2022/01/26 05:13:47;;;;;;;;;;;-3.00;99.90;;;;;;5088063;28;19919;-73
2022/01/26 05:16:12;;;;;;;;;;;-3.00;99.90;;;;;;5074701;28;20007;-72
2022/01/26 05:18:38;;;;;;;;;;;-3.00;99.90;;;;;;5082108;28;19913;-73
2022/01/26 05:21:03;;;;;;;;;;;-3.00;99.90;;;;;;5078528;28;19915;-73
2022/01/26 05:23:29;;;;;;;;;;;-3.00;99.90;;;;;;5074929;28;19991;-73
2022/01/26 05:25:55;;;;;;;;;;;-3.00;99.90;;;;;;5077698;28;19912;-72
2022/01/26 05:28:20;;;;;;;;;;;-3.00;99.90;;;;;;5085220;28;19940;-73
2022/01/26 05:30:46;;;;;;;;;;;-2.90;99.90;;;;;;5094792;28;19938;-73
2022/01/26 05:33:11;;;;;;;;;;;-2.90;99.90;;;;;;5106949;28;19912;-73
2022/01/26 05:35:37;;;;;;;;;;;-2.90;99.90;;;;;;5084347;28;20269;-72
2022/01/26 05:38:02;;;;;;;;;;;-2.90;99.90;;;;;;5074379;28;20391;-72
2022/01/26 05:40:28;;;;;;;;;;;-2.80;99.90;;;;;;5074969;28;19951;-72
2022/01/26 05:42:53;;;;;;;;;;;-2.90;99.90;;;;;;5074145;28;19981;-73
2022/01/26 05:45:26;;;;;;;;;;;-2.90;99.90;;;;;;5074210;28;20007;-72
2022/01/26 05:47:52;;;;;;;;;;;-2.90;99.90;;;;;;5083242;28;19908;-72
2022/01/26 05:50:19;;;;;;;;;;;-2.80;99.90;;;;;;5088600;28;20045;-73
2022/01/26 05:52:45;;;;;;;;;;;-2.80;99.90;;;;;;5074323;28;19915;-73
2022/01/26 05:55:10;;;;;;;;;;;-2.80;99.90;;;;;;5073867;28;19908;-73
2022/01/26 05:57:36;;;;;;;;;;;-2.90;99.90;;;;;;5075918;28;19912;-73
2022/01/26 06:00:01;;;;;;;;;;;-2.90;99.90;;;;;;5093593;28;20041;-72
2022/01/26 06:02:27;;;;;;;;;;;-2.90;99.90;;;;;;5092783;28;19915;-73
2022/01/26 06:04:53;;;;;;;;;;;-2.90;99.90;;;;;;5092846;28;20373;-73
2022/01/26 06:07:18;;;;;;;;;;;-2.90;99.90;;;;;;5093824;28;19908;-72
2022/01/26 06:09:43;;;;;;;;;;;-2.90;99.90;;;;;;5094161;28;20365;-72
2022/01/26 06:12:09;;;;;;;;;;;-3.00;99.90;;;;;;5087502;28;19909;-72
2022/01/26 06:14:35;;;;;;;;;;;-2.90;99.90;;;;;;5073264;28;20387;-73
2022/01/26 06:17:01;;;;;;;;;;;-3.00;99.90;;;;;;5073743;28;19917;-72
2022/01/26 06:19:26;;;;;;;;;;;-3.00;99.90;;;;;;5081152;28;19915;-73
2022/01/26 06:21:52;;;;;;;;;;;-2.90;99.90;;;;;;5079872;28;19962;-72
2022/01/26 06:24:17;;;;;;;;;;;-2.90;99.90;;;;;;5073510;28;19995;-72
2022/01/26 06:26:43;;;;;;;;;;;-3.00;99.90;;;;;;5073463;28;20388;-72
2022/01/26 06:29:08;;;;;;;;;;;-3.10;99.90;;;;;;5073633;28;19912;-72
2022/01/26 06:31:34;;;;;;;;;;;-3.00;99.90;;;;;;5073678;28;20116;-72
2022/01/26 06:34:02;;;;;;;;;;;-3.00;99.90;;;;;;5073234;28;19995;-73
2022/01/26 06:36:28;;;;;;;;;;;-3.10;99.90;;;;;;5073281;28;20297;-73
2022/01/26 06:38:54;;;;;;;;;;;-3.10;99.90;;;;;;5073542;28;19908;-73
2022/01/26 06:41:25;;;;;;;;;;;-3.00;99.90;;;;;;5073354;28;19908;-73
2022/01/26 06:43:57;;;;;;;;;;;-3.00;99.90;;;;;;5072928;28;20007;-73
2022/01/26 06:46:31;;;;;;;;;;;-3.00;99.90;;;;;;5073170;28;19909;-73
2022/01/26 06:49:42;;;;;;;;;;;-3.00;99.90;;;;;;5082736;28;20681;-73
2022/01/26 06:51:42;;;;;;;;;;;-3.00;99.90;;;;;;5066506;28;19908;-72
2022/01/26 06:54:08;;;;;;;;;;;-3.00;99.90;;;;;;5073816;28;19935;-72
2022/01/26 06:56:33;;;;;;;;;;;-3.10;99.90;;;;;;5073663;28;19912;-72
2022/01/26 06:58:59;;;;;;;;;;;-3.10;99.90;;;;;;5073388;28;20284;-72
2022/01/26 07:01:24;;;;;;;;;;;-3.10;99.90;;;;;;5073966;28;19916;-73
2022/01/26 07:03:50;;;;;;;;;;;-3.00;99.90;;;;;;5073499;28;19940;-72
2022/01/26 07:06:15;;;;;;;;;;;-3.00;99.90;;;;;;5073518;28;19909;-72
2022/01/26 07:08:41;;;;;;;;;;;-3.00;99.90;;;;;;5089098;28;20006;-72
2022/01/26 07:11:06;;;;;;;;;;;-3.00;99.90;;;;;;5092557;28;19953;-72
2022/01/26 07:13:32;;;;;;;;;;;-3.00;99.90;;;;;;5091507;28;19915;-72
2022/01/26 07:21:26;;;;;;;;;;;-3.00;99.90;;;;;;5081814;28;19915;-72
2022/01/26 07:23:53;;;;;;;;;;;-2.90;99.90;;;;;;5090588;28;19908;-72
2022/01/26 07:26:18;;;;;;;;;;;-2.80;99.90;;;;;;5092411;28;19912;-72
2022/01/26 07:28:44;;;;;;;;;;;-2.80;99.90;;;;;;5092127;28;19953;-72
2022/01/26 07:31:10;;;;;;;;;;;-2.90;99.90;;;;;;5092109;28;19908;-72
2022/01/26 07:33:37;;;;;;;;;;;-2.80;99.90;;;;;;5075818;28;19947;-72
2022/01/26 07:36:03;;;;;;;;;;;-2.70;99.90;;;;;;5075494;28;20304;-72
2022/01/26 07:38:28;;;;;;;;;;;-2.80;99.90;;;;;;5091771;28;19916;-72
2022/01/26 07:40:54;;;;;;;;;;;-2.90;99.90;;;;;;5089106;28;20337;-72
2022/01/26 07:43:20;;;;;;;;;;;-2.90;99.90;;;;;;5072240;28;19912;-71
2022/01/26 07:45:45;;;;;;;;;;;-2.80;99.90;;;;;;5072227;28;19915;-71
2022/01/26 07:48:11;;;;;;;;;;;-2.80;99.90;;;;;;5073040;28;19962;-71
2022/01/26 07:50:36;;;;;;;;;;;-2.80;99.90;;;;;;5079887;28;19996;-72
2022/01/26 07:53:02;;;;;;;;;;;-2.80;99.90;;;;;;5080948;28;19909;-71
2022/01/26 07:55:29;;;;;;;;;;;-2.70;99.90;;;;;;5074030;28;19912;-71
2022/01/26 07:57:56;;;;;;;;;;;-2.70;99.90;;;;;;5072652;28;19908;-71
2022/01/26 08:00:22;;;;;;;;;;;-2.80;99.90;;;;;;5085621;28;19954;-71
2022/01/26 08:02:49;;;;;;;;;;;-2.70;99.90;;;;;;5072430;28;20358;-71
2022/01/26 08:05:15;;;;;;;;;;;-2.70;99.90;;;;;;5072131;28;19951;-71
2022/01/26 08:07:40;;;;;;;;;;;-2.90;99.90;;;;;;5081919;28;19912;-71
2022/01/26 08:10:07;;;;;;;;;;;-3.00;99.90;;;;;;5091730;28;19977;-71
2022/01/26 08:12:33;;;;;;;;;;;-3.00;99.90;;;;;;5091899;28;19962;-71
2022/01/26 08:14:58;;;;;;;;;;;-3.20;99.90;;;;;;5091446;28;19978;-71
2022/01/26 08:17:24;;;;;;;;;;;-3.00;99.90;;;;;;5071920;28;19957;-71
2022/01/26 08:19:55;;;;;;;;;;;-2.90;99.90;;;;;;5078164;28;19998;-71
2022/01/26 08:22:21;;;;;;;;;;;-2.80;99.90;;;;;;5078825;28;19909;-71
2022/01/26 08:24:47;;;;;;;;;;;-2.90;99.90;;;;;;5071329;28;19908;-71
2022/01/26 08:27:15;;;;;;;;;;;-2.90;99.90;;;;;;5091184;28;19983;-71
2022/01/26 08:29:48;;;;;;;;;;;-2.80;99.90;;;;;;5091534;28;19908;-71
2022/01/26 08:32:13;;;;;;;;;;;-3.00;99.90;;;;;;5091157;28;20331;-71
2022/01/26 08:34:39;;;;;;;;;;;-2.90;99.90;;;;;;5090984;28;19915;-71
2022/01/26 08:37:05;;;;;;;;;;;-2.70;99.90;;;;;;5090972;28;19935;-71
2022/01/26 08:39:32;;;;;;;;;;;-2.80;99.90;;;;;;5071409;28;19979;-72
2022/01/26 08:41:59;;;;;;;;;;;-2.90;99.90;;;;;;5084445;28;19908;-71
2022/01/26 08:44:24;;;;;;;;;;;-2.90;99.90;;;;;;5090482;28;20014;-71
2022/01/26 08:46:51;;;;;;;;;;;-2.80;99.90;;;;;;5091043;28;19943;-71
2022/01/26 08:49:16;;;;;;;;;;;-2.80;99.90;;;;;;5089043;28;19908;-71
2022/01/26 08:51:42;;;;;;;;;;;-2.70;99.90;;;;;;5080147;28;19916;-71
2022/01/26 08:54:10;;;;;;;;;;;-2.60;99.90;;;;;;5072426;28;20452;-71
2022/01/26 08:56:36;;;;;;;;;;;-2.70;99.90;;;;;;5071637;28;19913;-72
2022/01/26 08:59:02;;;;;;;;;;;-2.80;99.90;;;;;;5071492;28;19909;-71
2022/01/26 09:01:27;;;;;;;;;;;-2.90;99.90;;;;;;5071848;28;19908;-71
2022/01/26 09:03:53;;;;;;;;;;;-2.80;99.90;;;;;;5071068;28;19915;-71
2022/01/26 09:06:18;;;;;;;;;;;-2.90;99.90;;;;;;5071615;28;19980;-71
2022/01/26 09:08:45;;;;;;;;;;;-2.80;99.90;;;;;;5071460;28;19991;-71
2022/01/26 09:11:11;;;;;;;;;;;-2.70;99.90;;;;;;5071258;28;19908;-71
2022/01/26 09:13:37;;;;;;;;;;;-2.80;99.90;;;;;;5090841;28;20387;-71
2022/01/26 09:16:04;;;;;;;;;;;-2.80;99.90;;;;;;5090314;28;19912;-72
2022/01/26 09:18:40;;;;;;;;;;;-2.70;99.90;;;;;;5090273;28;19908;-71
2022/01/26 09:21:06;;;;;;;;;;;-2.70;99.90;;;;;;5083157;28;19915;-71
2022/01/26 09:23:32;;;;;;;;;;;-2.50;99.90;;;;;;5086015;28;19908;-71
2022/01/26 09:25:58;;;;;;;;;;;-2.40;99.90;;;;;;5069955;28;19908;-71
2022/01/26 09:28:24;;;;;;;;;;;-2.50;99.90;;;;;;5071357;28;19999;-71
2022/01/26 09:30:50;;;;;;;;;;;-2.70;99.90;;;;;;5070930;28;19908;-71
2022/01/26 09:33:15;;;;;;;;;;;-2.60;99.90;;;;;;5070529;28;19915;-71
2022/01/26 09:35:41;;;;;;;;;;;-2.60;99.90;;;;;;5070868;28;19919;-71
2022/01/26 09:38:06;;;;;;;;;;;-2.70;99.90;;;;;;5072510;28;19915;-71
2022/01/26 09:40:33;;;;;;;;;;;-2.50;99.90;;;;;;5085417;28;20397;-71
2022/01/26 09:42:59;;;;;;;;;;;-2.80;99.90;;;;;;5093527;28;20021;-71
2022/01/26 09:45:25;;;;;;;;;;;-2.70;99.90;;;;;;5093846;28;19999;-71
2022/01/26 09:47:51;;;;;;;;;;;-2.60;99.90;;;;;;5093641;28;20404;-71
2022/01/26 09:50:16;;;;;;;;;;;-2.70;99.90;;;;;;5080904;28;20337;-71
2022/01/26 09:52:47;;;;;;;;;;;-3.00;99.90;;;;;;5084144;28;20004;-71
2022/01/26 09:55:12;;;;;;;;;;;-2.90;99.90;;;;;;5094907;28;19955;-71
2022/01/26 09:57:40;;;;;;;;;;;-2.90;99.90;;;;;;5093664;28;19963;-72
2022/01/26 10:00:07;;;;;;;;;;;-2.70;99.90;;;;;;5093797;28;19912;-71
2022/01/26 10:02:33;;;;;;;;;;;-2.80;99.90;;;;;;5092247;28;19965;-71
2022/01/26 10:05:10;;;;;;;;;;;-2.70;99.90;;;;;;5093117;28;19981;-71
2022/01/26 10:18:14;;;;;;;;;;;-2.30;99.90;;;;;;5087863;28;20514;-71
2022/01/26 10:20:46;;;;;;;;;;;-1.70;99.90;;;;;;5086727;28;19969;-71
2022/01/26 10:23:16;;;;;;;;;;;-1.80;99.90;;;;;;5078798;28;19962;-71
2022/01/26 10:25:42;;;;;;;;;;;-2.00;99.90;;;;;;5075310;28;19912;-71
2022/01/26 10:28:09;;;;;;;;;;;-1.90;99.90;;;;;;5085649;28;19908;-71
2022/01/26 10:30:35;;;;;;;;;;;-2.20;99.90;;;;;;5094240;28;20275;-71
2022/01/26 10:33:06;;;;;;;;;;;-2.50;99.90;;;;;;5093649;28;20003;-71
2022/01/26 10:35:31;;;;;;;;;;;-2.20;99.90;;;;;;5094740;28;19913;-72
2022/01/26 10:37:57;;;;;;;;;;;-2.10;99.90;;;;;;5094230;28;19976;-72
2022/01/26 10:40:25;;;;;;;;;;;-1.80;99.90;;;;;;5093790;28;20493;-72
2022/01/26 10:42:56;;;;;;;;;;;-1.60;99.90;;;;;;5094448;28;20001;-71
2022/01/26 10:45:42;;;;;;;;;;;-1.40;99.90;;;;;;5093890;28;20422;-71
2022/01/26 10:48:16;;;;;;;;;;;-1.50;99.90;;;;;;5094647;28;19908;-72
2022/01/26 10:53:08;;;;;;;;;;;-1.10;99.90;;;;;;5087120;28;19908;-72
2022/01/26 10:55:36;;;;;;;;;;;-1.20;99.90;;;;;;5075826;28;19908;-71
2022/01/26 10:58:02;;;;;;;;;;;-1.60;99.90;;;;;;5073979;28;19913;-71
2022/01/26 11:00:32;;;;;;;;;;;-1.50;99.90;;;;;;5074574;28;19893;-72
2022/01/26 11:02:58;;;;;;;;;;;-1.20;99.90;;;;;;5077656;28;19915;-71
2022/01/26 11:05:23;;;;;;;;;;;-1.10;99.90;;;;;;5076987;28;19908;-73
2022/01/26 11:07:50;;;;;;;;;;;-1.30;99.90;;;;;;5074948;28;20373;-72
2022/01/26 11:10:16;;;;;;;;;;;-1.30;99.90;;;;;;5073857;28;19912;-71
2022/01/26 11:12:42;;;;;;;;;;;-1.30;99.90;;;;;;5072934;28;19916;-72
2022/01/26 11:15:09;;;;;;;;;;;-1.10;99.90;;;;;;5071419;28;19916;-72
2022/01/26 11:17:37;;;;;;;;;;;-1.20;99.90;;;;;;5076140;28;20003;-72
2022/01/26 11:20:30;;;;;;;;;;;-1.20;99.90;;;;;;5079102;28;20422;-72
2022/01/26 11:22:59;;;;;;;;;;;-1.20;99.90;;;;;;5074889;28;19909;-70
2022/01/26 11:25:27;;;;;;;;;;;-1.50;99.90;;;;;;5074502;28;19916;-72
2022/01/26 11:27:53;;;;;;;;;;;-1.70;99.90;;;;;;5073874;28;20034;-73
2022/01/26 11:30:27;;;;;;;;;;;-1.60;99.90;;;;;;5073199;28;19952;-73
2022/01/26 11:32:58;;;;;;;;;;;-1.50;99.90;;;;;;5072873;28;19994;-72
2022/01/26 11:35:26;;;;;;;;;;;-1.70;99.90;;;;;;5072843;28;20384;-72
2022/01/26 11:38:05;;;;;;;;;;;-1.70;99.90;;;;;;5072724;28;19920;-73
2022/01/26 11:46:25;;;;;;;;;;;-1.70;99.90;;;;;;5092276;28;20014;-72
2022/01/26 11:49:07;;;;;;;;;;;-1.60;99.90;;;;;;5092006;28;20380;-72
2022/01/26 11:51:51;;;;;;;;;;;-1.40;99.90;;;;;;5098409;28;19909;-73
2022/01/26 11:54:20;;;;;;;;;;;-1.00;99.90;;;;;;5071909;28;19995;-72
2022/01/26 11:57:05;;;;;;;;;;;-0.70;99.90;;;;;;5072452;28;19999;-73
2022/01/26 11:59:33;;;;;;;;;;;-0.90;99.90;;;;;;5087188;28;19912;-72
2022/01/26 12:02:07;;;;;;;;;;;-1.10;99.90;;;;;;5090910;28;19912;-73
2022/01/26 12:04:35;;;;;;;;;;;-0.80;99.90;;;;;;5091216;28;19908;-71
2022/01/26 12:07:22;;;;;;;;;;;-0.90;99.90;;;;;;5091487;28;20001;-73
2022/01/26 12:09:48;;;;;;;;;;;-0.80;99.90;;;;;;5091641;28;19908;-73
2022/01/26 12:12:20;;;;;;;;;;;-0.70;99.90;;;;;;5091815;28;19908;-72
2022/01/26 12:14:58;;;;;;;;;;;-0.80;99.90;;;;;;5090834;28;20462;-73
2022/01/26 12:17:30;;;;;;;;;;;-0.70;99.90;;;;;;5091255;28;19951;-73
2022/01/26 12:34:41;;;;;;;;;;;-0.70;99.90;;;;;;5090220;28;19978;-72
2022/01/26 12:37:20;;;;;;;;;;;-0.50;99.90;;;;;;5090588;28;19919;-72
2022/01/26 12:43:08;;;;;;;;;;;-0.70;99.90;;;;;;5090882;28;20005;-73
2022/01/26 12:45:27;;;;;;;;;;;-0.40;99.90;;;;;;5088405;28;19908;-72
2022/01/26 12:47:54;;;;;;;;;;;-0.60;99.90;;;;;;5090671;28;19908;-72
2022/01/26 12:50:20;;;;;;;;;;;-0.80;99.90;;;;;;5084237;28;19914;-71
2022/01/26 12:52:50;;;;;;;;;;;-0.70;99.90;;;;;;5074593;28;20019;-72
2022/01/26 12:55:26;;;;;;;;;;;-0.60;99.90;;;;;;5070952;28;20183;-73
2022/01/26 12:57:52;;;;;;;;;;;-0.60;99.90;;;;;;5071905;28;19999;-73
2022/01/26 13:00:18;;;;;;;;;;;-0.20;99.90;;;;;;5071339;28;19996;-71
2022/01/26 13:02:43;;;;;;;;;;;0.00;99.90;;;;;;5072591;28;20377;-73
2022/01/26 13:05:09;;;;;;;;;;;-0.40;99.90;;;;;;5072694;28;19917;-72
2022/01/26 13:07:35;;;;;;;;;;;-0.40;99.90;;;;;;5071301;28;19919;-72
2022/01/26 13:10:01;;;;;;;;;;;-0.20;99.90;;;;;;5072685;28;19908;-72
2022/01/26 13:12:30;;;;;;;;;;;-0.20;99.90;;;;;;5073173;28;19961;-72
2022/01/26 13:15:05;;;;;;;;;;;-0.40;99.90;;;;;;5074504;28;19916;-72
2022/01/26 13:20:24;;;;;;;;;;;-0.30;99.90;;;;;;5077700;28;20338;-72
2022/01/26 13:25:38;;;;;;;;;;;-0.50;99.90;;;;;;5075946;28;19908;-72
2022/01/26 13:35:42;;;;;;;;;;;0.00;99.90;;;;;;5075846;28;19962;-72
2022/01/26 13:38:20;;;;;;;;;;;-0.10;99.90;;;;;;5075008;28;19945;-72
2022/01/26 14:01:45;;;;;;;;;;;-0.20;99.90;;;;;;5074730;28;19915;-72
2022/01/26 14:04:12;;;;;;;;;;;-0.20;99.90;;;;;;5074236;28;19920;-72
2022/01/26 14:06:38;;;;;;;;;;;-0.10;99.90;;;;;;5074398;28;20004;-72
2022/01/26 14:09:04;;;;;;;;;;;-0.20;99.90;;;;;;5092841;28;19951;-72
2022/01/26 14:11:29;;;;;;;;;;;0.00;99.90;;;;;;5095178;28;19912;-72
2022/01/26 14:13:57;;;;;;;;;;;-0.20;99.90;;;;;;5093786;28;20010;-72
2022/01/26 14:16:24;;;;;;;;;;;-0.10;99.90;;;;;;5093924;28;20412;-72
2022/01/26 14:26:18;;;;;;;;;;;0.00;99.90;;;;;;5073917;28;19908;-73
2022/01/26 14:28:44;;;;;;;;;;;-0.10;99.90;;;;;;5074279;28;19913;-72
2022/01/26 14:39:31;;;;;;;;;;;-0.10;99.90;;;;;;5074254;28;19912;-72
2022/01/26 15:30:18;;;;;;;;;;;-1.10;99.90;;;;;;5092899;28;20003;-72
2022/01/26 15:35:51;;;;;;;;;;;-1.10;99.90;;;;;;5090836;28;20010;-72
2022/01/26 15:57:49;;;;;;;;;;;-1.30;99.90;;;;;;5073117;28;20006;-72
2022/01/26 16:08:35;;;;;;;;;;;-1.40;99.90;;;;;;5092117;28;19908;-72
2022/01/26 17:43:15;;;;;;;;;;;-1.30;99.90;;;;;;5094210;28;19951;-72
2022/01/26 18:15:39;;;;;;;;;;;-1.40;99.90;;;;;;5074364;28;19939;-73
2022/01/26 18:26:30;;;;;;;;;;;-1.30;99.90;;;;;;5074131;28;19954;-73
2022/01/26 18:51:10;;;;;;;;;;;-1.30;99.90;;;;;;5080811;28;20326;-72
2022/01/26 18:53:35;;;;;;;;;;;-1.40;99.90;;;;;;5075320;28;19909;-72
2022/01/26 18:56:01;;;;;;;;;;;-1.30;99.90;;;;;;5073086;28;19912;-72
2022/01/26 18:58:26;;;;;;;;;;;-1.30;99.90;;;;;;5081735;28;19916;-72
2022/01/26 19:00:52;;;;;;;;;;;-1.30;99.90;;;;;;5073306;28;20005;-72
2022/01/26 19:03:18;;;;;;;;;;;-1.30;99.90;;;;;;5072458;28;19962;-72
2022/01/26 19:05:44;;;;;;;;;;;-1.30;99.90;;;;;;5072970;28;19909;-72
2022/01/26 19:08:10;;;;;;;;;;;-1.30;99.90;;;;;;5072770;28;19909;-72
2022/01/26 19:10:36;;;;;;;;;;;-1.30;99.90;;;;;;5072574;28;20354;-72
2022/01/26 19:13:01;;;;;;;;;;;-1.40;99.90;;;;;;5072723;28;20293;-72
2022/01/26 19:15:30;;;;;;;;;;;-1.40;99.90;;;;;;5072671;28;20369;-72
2022/01/26 19:18:08;;;;;;;;;;;-1.30;99.90;;;;;;5072514;28;19973;-72
2022/01/26 19:23:20;;;;;;;;;;;-1.30;99.90;;;;;;5086737;28;19919;-72
2022/01/26 19:26:29;;;;;;;;;;;-1.30;99.90;;;;;;5072588;28;19932;-72
2022/01/26 19:28:39;;;;;;;;;;;-1.30;99.90;;;;;;5065404;28;20001;-72
2022/01/26 19:52:55;;;;;;;;;;;-1.30;99.90;;;;;;5075189;28;19999;-72
2022/01/26 19:55:21;;;;;;;;;;;-1.30;99.90;;;;;;5071606;28;19909;-72
2022/01/26 19:57:47;;;;;;;;;;;-1.30;99.90;;;;;;5072080;28;19912;-72
2022/01/26 20:00:12;;;;;;;;;;;-1.30;99.90;;;;;;5071735;28;19912;-72
2022/01/26 20:02:38;;;;;;;;;;;-1.20;99.90;;;;;;5071964;28;19983;-71
2022/01/26 20:05:04;;;;;;;;;;;-1.20;99.90;;;;;;5071339;28;20371;-72
2022/01/26 20:07:31;;;;;;;;;;;-1.20;99.90;;;;;;5072042;28;19913;-72
2022/01/26 20:10:00;;;;;;;;;;;-1.30;99.90;;;;;;5071726;28;20007;-72
2022/01/26 20:12:49;;;;;;;;;;;-1.30;99.90;;;;;;5071904;28;20068;-72
2022/01/26 20:15:12;;;;;;;;;;;-1.30;99.90;;;;;;5070914;28;19920;-72
2022/01/26 20:17:39;;;;;;;;;;;-1.20;99.90;;;;;;5071515;28;20284;-71
2022/01/26 20:20:05;;;;;;;;;;;-1.20;99.90;;;;;;5075963;28;19915;-71
2022/01/26 20:22:30;;;;;;;;;;;-1.20;99.90;;;;;;5080480;28;19913;-71
2022/01/26 20:24:56;;;;;;;;;;;-1.20;99.90;;;;;;5071254;28;19916;-72
2022/01/26 20:27:23;;;;;;;;;;;-1.20;99.90;;;;;;5072783;28;19966;-71
2022/01/26 20:29:57;;;;;;;;;;;-1.20;99.90;;;;;;5072357;28;20007;-72
2022/01/26 20:32:22;;;;;;;;;;;-1.20;99.90;;;;;;5071522;28;20537;-72
2022/01/26 20:34:50;;;;;;;;;;;-1.10;99.90;;;;;;5071159;28;19908;-72
2022/01/26 20:37:15;;;;;;;;;;;-1.20;99.90;;;;;;5071166;28;19919;-71
2022/01/26 20:39:41;;;;;;;;;;;-1.20;99.90;;;;;;5071497;28;19909;-71
2022/01/26 20:42:07;;;;;;;;;;;-1.10;99.90;;;;;;5071257;28;19909;-72
2022/01/26 20:44:32;;;;;;;;;;;-1.10;99.90;;;;;;5071110;28;19915;-71
2022/01/26 20:46:58;;;;;;;;;;;-1.10;99.90;;;;;;5070217;28;19909;-72
2022/01/26 20:49:23;;;;;;;;;;;-1.10;99.90;;;;;;5071283;28;19961;-71
2022/01/26 20:51:49;;;;;;;;;;;-1.10;99.90;;;;;;5073998;28;19937;-72
2022/01/26 20:54:14;;;;;;;;;;;-1.10;99.90;;;;;;5083371;28;19912;-72
2022/01/26 20:56:40;;;;;;;;;;;-1.10;99.90;;;;;;5078030;28;20361;-71
2022/01/26 20:59:05;;;;;;;;;;;-1.10;99.90;;;;;;5071194;28;19912;-71
2022/01/26 21:01:31;;;;;;;;;;;-1.10;99.90;;;;;;5071320;28;19962;-72
2022/01/26 21:03:56;;;;;;;;;;;-1.10;99.90;;;;;;5070752;28;19939;-72
2022/01/26 21:06:22;;;;;;;;;;;-1.10;99.90;;;;;;5071217;28;19909;-72
2022/01/26 21:08:47;;;;;;;;;;;-1.10;99.90;;;;;;5071018;28;19912;-72
2022/01/26 21:11:13;;;;;;;;;;;-1.10;99.90;;;;;;5071058;28;20273;-71
2022/01/26 21:13:39;;;;;;;;;;;-1.10;99.90;;;;;;5070581;28;19913;-71
2022/01/26 21:16:05;;;;;;;;;;;-1.10;99.90;;;;;;5071040;28;20285;-71
2022/01/26 21:18:32;;;;;;;;;;;-1.10;99.90;;;;;;5071086;28;19995;-72
2022/01/26 21:21:01;;;;;;;;;;;-1.10;99.90;;;;;;5079953;28;19954;-71
2022/01/26 21:23:27;;;;;;;;;;;-1.10;99.90;;;;;;5077603;28;19915;-71